createdAt,value
2018-05-27T00:00:20.544Z,45.96
2018-05-27T00:02:47.013Z,45.94
2018-05-27T00:05:13.123Z,45.99
2018-05-27T00:07:39.541Z,46.02
2018-05-27T00:10:05.691Z,46.02
2018-05-27T00:12:31.788Z,46.02
2018-05-27T00:14:57.973Z,46.03
2018-05-27T00:17:24.480Z,46.01
2018-05-27T00:19:50.576Z,46.02
2018-05-27T00:22:16.681Z,46.03
2018-05-27T00:24:42.916Z,46.04
2018-05-27T00:27:09.024Z,46.05
2018-05-27T00:29:35.117Z,46.06
2018-05-27T00:32:01.244Z,46.03
2018-05-27T00:34:27.332Z,46.07
2018-05-27T00:36:53.462Z,46.12
2018-05-27T00:39:19.557Z,46.12
2018-05-27T00:41:45.724Z,46.12
2018-05-27T00:44:11.833Z,46.11
2018-05-27T00:46:37.920Z,46.13
2018-05-27T00:49:04.080Z,46.15
2018-05-27T00:51:30.174Z,46.15
2018-05-27T00:53:59.298Z,46.16
2018-05-27T00:56:25.564Z,46.17
2018-05-27T00:58:51.660Z,46.15
2018-05-27T01:01:17.783Z,46.15
2018-05-27T01:03:43.904Z,46.16
2018-05-27T01:06:10.341Z,46.13
2018-05-27T01:08:37.082Z,46.15
2018-05-27T01:11:03.192Z,46.17
2018-05-27T01:13:29.288Z,46.18
2018-05-27T01:15:55.455Z,46.17
2018-05-27T01:18:21.563Z,46.25
2018-05-27T01:20:47.692Z,46.31
2018-05-27T01:23:13.910Z,46.32
2018-05-27T01:25:40.030Z,46.37
2018-05-27T01:28:06.154Z,46.41
2018-05-27T01:30:32.626Z,46.40
2018-05-27T01:32:59.056Z,46.40
2018-05-27T01:35:25.153Z,46.38
2018-05-27T01:37:51.283Z,46.41
2018-05-27T01:40:17.416Z,46.37
2018-05-27T01:42:43.509Z,46.40
2018-05-27T01:45:09.642Z,46.38
2018-05-27T01:47:35.740Z,46.40
2018-05-27T01:50:01.878Z,46.37
2018-05-27T01:52:28.266Z,46.35
2018-05-27T01:54:54.697Z,46.37
2018-05-27T01:57:20.812Z,46.38
2018-05-27T01:59:47.153Z,46.36
2018-05-27T02:02:13.280Z,46.37
2018-05-27T02:04:39.437Z,46.37
2018-05-27T02:07:05.532Z,46.37
2018-05-27T02:09:31.629Z,46.35
2018-05-27T02:11:57.883Z,46.38
2018-05-27T02:14:23.994Z,46.39
2018-05-27T02:16:50.121Z,46.38
2018-05-27T02:19:16.278Z,46.37
2018-05-27T02:21:42.388Z,46.35
2018-05-27T02:24:08.821Z,46.36
2018-05-27T02:26:34.987Z,46.34
2018-05-27T02:29:01.091Z,46.36
2018-05-27T02:31:27.333Z,46.37
2018-05-27T02:33:53.438Z,46.36
2018-05-27T02:36:19.537Z,46.36
2018-05-27T02:38:45.661Z,46.39
2018-05-27T02:41:11.797Z,46.38
2018-05-27T02:43:37.924Z,46.39
2018-05-27T02:46:04.497Z,46.39
2018-05-27T02:48:30.601Z,46.38
2018-05-27T02:50:56.941Z,46.40
2018-05-27T02:53:23.098Z,46.44
2018-05-27T02:55:49.476Z,46.40
2018-05-27T02:58:15.915Z,46.42
2018-05-27T03:00:42.037Z,46.43
2018-05-27T03:03:08.157Z,46.44
2018-05-27T03:05:34.263Z,46.44
2018-05-27T03:08:00.494Z,46.44
2018-05-27T03:10:26.603Z,46.42
2018-05-27T03:12:52.737Z,46.42
2018-05-27T03:15:18.824Z,46.42
2018-05-27T03:17:44.973Z,46.48
2018-05-27T03:20:11.097Z,46.52
2018-05-27T03:22:37.196Z,46.57
2018-05-27T03:25:03.600Z,46.59
2018-05-27T03:27:29.849Z,46.57
2018-05-27T03:29:55.942Z,46.53
2018-05-27T03:32:22.043Z,46.57
2018-05-27T03:34:48.278Z,46.52
2018-05-27T03:37:14.387Z,46.48
2018-05-27T03:39:40.477Z,46.49
2018-05-27T03:42:06.615Z,46.50
2018-05-27T03:44:32.737Z,46.44
2018-05-27T03:46:58.873Z,46.43
2018-05-27T03:49:25.021Z,46.43
2018-05-27T03:51:51.121Z,46.39
2018-05-27T03:54:17.250Z,46.33
2018-05-27T03:56:43.466Z,46.25
2018-05-27T03:59:09.584Z,46.25
2018-05-27T04:01:36.002Z,46.24
2018-05-27T04:04:14.383Z,46.23
2018-05-27T04:06:52.713Z,46.18
2018-05-27T04:09:18.844Z,46.19
2018-05-27T04:11:44.971Z,46.22
2018-05-27T04:14:11.111Z,46.15
2018-05-27T04:16:37.213Z,46.11
2018-05-27T04:19:03.312Z,46.07
2018-05-27T04:21:29.524Z,46.03
2018-05-27T04:23:56.322Z,45.99
2018-05-27T04:26:22.426Z,45.96
2018-05-27T04:28:48.521Z,45.97
2018-05-27T04:31:15.011Z,45.97
2018-05-27T04:33:41.645Z,45.98
2018-05-27T04:36:07.743Z,45.99
2018-05-27T04:38:33.896Z,46.01
2018-05-27T04:41:00.224Z,46.04
2018-05-27T04:43:26.661Z,46.06
2018-05-27T04:45:52.830Z,46.04
2018-05-27T04:48:19.110Z,46.01
2018-05-27T04:50:45.223Z,46.03
2018-05-27T04:53:11.776Z,46.00
2018-05-27T04:55:38.208Z,45.91
2018-05-27T04:58:04.304Z,45.97
2018-05-27T05:00:30.445Z,45.95
2018-05-27T05:02:56.574Z,45.97
2018-05-27T05:05:23.022Z,45.99
2018-05-27T05:07:49.125Z,45.99
2018-05-27T05:10:15.233Z,45.98
2018-05-27T05:12:41.464Z,45.95
2018-05-27T05:15:07.576Z,45.92
2018-05-27T05:17:33.669Z,45.89
2018-05-27T05:20:00.508Z,45.93
2018-05-27T05:22:26.703Z,46.06
2018-05-27T05:24:53.055Z,46.08
2018-05-27T05:27:19.192Z,46.02
2018-05-27T05:29:45.435Z,45.95
2018-05-27T05:32:11.541Z,45.91
2018-05-27T05:34:37.637Z,45.87
2018-05-27T05:37:04.090Z,45.85
2018-05-27T05:39:30.188Z,45.90
2018-05-27T05:41:56.323Z,45.87
2018-05-27T05:44:22.428Z,45.85
2018-05-27T05:46:48.818Z,45.85
2018-05-27T05:49:14.972Z,45.83
2018-05-27T05:51:41.087Z,45.85
2018-05-27T05:54:07.223Z,45.88
2018-05-27T05:56:33.359Z,45.84
2018-05-27T05:58:59.530Z,45.83
2018-05-27T06:01:25.766Z,45.79
2018-05-27T06:03:51.867Z,45.79
2018-05-27T06:06:17.969Z,45.77
2018-05-27T06:08:44.345Z,45.74
2018-05-27T06:11:10.445Z,45.71
2018-05-27T06:13:36.575Z,45.68
2018-05-27T06:16:02.683Z,45.65
2018-05-27T06:18:29.180Z,45.57
2018-05-27T06:20:55.277Z,45.51
2018-05-27T06:23:21.451Z,45.42
2018-05-27T06:25:47.633Z,45.45
2018-05-27T06:28:13.717Z,45.38
2018-05-27T06:30:39.850Z,45.41
2018-05-27T06:33:06.213Z,45.36
2018-05-27T06:35:32.353Z,45.33
2018-05-27T06:37:58.768Z,45.31
2018-05-27T06:40:24.973Z,45.28
2018-05-27T06:42:51.069Z,45.21
2018-05-27T06:45:17.171Z,45.17
2018-05-27T06:47:43.335Z,45.16
2018-05-27T06:50:09.470Z,45.12
2018-05-27T06:52:36.031Z,45.05
2018-05-27T06:55:02.125Z,45.03
2018-05-27T06:57:28.309Z,44.97
2018-05-27T06:59:54.716Z,44.92
2018-05-27T07:02:21.031Z,44.87
2018-05-27T07:04:47.227Z,44.87
2018-05-27T07:07:13.310Z,44.86
2018-05-27T07:09:39.408Z,44.86
2018-05-27T07:12:06.166Z,44.83
2018-05-27T07:14:32.608Z,44.77
2018-05-27T07:16:58.698Z,44.73
2018-05-27T07:19:25.188Z,44.68
2018-05-27T07:21:51.312Z,44.58
2018-05-27T07:24:17.445Z,44.46
2018-05-27T07:26:43.841Z,44.35
2018-05-27T07:29:09.974Z,44.27
2018-05-27T07:31:36.501Z,44.20
2018-05-27T07:34:02.616Z,44.13
2018-05-27T07:36:28.968Z,44.04
2018-05-27T07:38:55.093Z,43.95
2018-05-27T07:41:21.198Z,43.82
2018-05-27T07:43:47.440Z,43.74
2018-05-27T07:46:20.585Z,43.62
2018-05-27T07:48:46.833Z,43.56
2018-05-27T07:51:12.969Z,43.53
2018-05-27T07:53:39.130Z,43.49
2018-05-27T07:56:05.277Z,43.41
2018-05-27T07:58:31.468Z,43.35
2018-05-27T08:00:57.897Z,43.37
2018-05-27T08:03:23.989Z,43.43
2018-05-27T08:05:50.095Z,43.45
2018-05-27T08:08:16.341Z,43.44
2018-05-27T08:10:42.437Z,43.42
2018-05-27T08:13:09.441Z,43.44
2018-05-27T08:15:35.568Z,43.52
2018-05-27T08:18:01.664Z,43.58
2018-05-27T08:20:27.805Z,43.61
2018-05-27T08:22:54.260Z,43.61
2018-05-27T08:25:20.792Z,43.55
2018-05-27T08:27:47.225Z,43.44
2018-05-27T08:30:13.331Z,43.37
2018-05-27T08:32:39.780Z,43.32
2018-05-27T08:35:05.957Z,43.28
2018-05-27T08:37:32.393Z,43.29
2018-05-27T08:39:58.501Z,43.26
2018-05-27T08:42:24.649Z,43.30
2018-05-27T08:44:50.775Z,43.32
2018-05-27T08:47:16.880Z,43.35
2018-05-27T08:49:43.446Z,43.36
2018-05-27T08:52:09.555Z,43.36
2018-05-27T08:54:35.675Z,43.36
2018-05-27T08:57:01.837Z,43.31
2018-05-27T08:59:27.929Z,43.25
2018-05-27T09:01:54.317Z,43.18
2018-05-27T09:04:20.788Z,43.13
2018-05-27T09:06:47.171Z,43.03
2018-05-27T09:09:13.264Z,42.99
2018-05-27T09:11:40.154Z,43.01
2018-05-27T09:14:06.580Z,43.05
2018-05-27T09:16:32.921Z,43.08
2018-05-27T09:18:59.763Z,43.14
2018-05-27T09:21:25.875Z,43.15
2018-05-27T09:23:51.981Z,43.16
2018-05-27T09:26:18.160Z,43.17
2018-05-27T09:28:44.353Z,43.17
2018-05-27T09:31:10.801Z,43.16
2018-05-27T09:33:36.957Z,43.14
2018-05-27T09:36:03.074Z,43.11
2018-05-27T09:38:29.889Z,43.10
2018-05-27T09:40:55.999Z,43.10
2018-05-27T09:43:22.104Z,43.08
2018-05-27T09:45:48.229Z,43.07
2018-05-27T09:48:14.407Z,43.06
2018-05-27T09:50:40.509Z,43.05
2018-05-27T09:53:06.612Z,43.04
2018-05-27T09:55:33.072Z,43.02
2018-05-27T09:57:59.226Z,43.01
2018-05-27T10:00:25.325Z,43.00
2018-05-27T10:02:51.434Z,42.99
2018-05-27T10:05:17.577Z,42.97
2018-05-27T10:07:43.688Z,42.96
2018-05-27T10:10:09.932Z,42.95
2018-05-27T10:12:36.040Z,42.93
2018-05-27T10:15:02.526Z,42.93
2018-05-27T10:17:28.661Z,42.86
2018-05-27T10:19:54.869Z,42.83
2018-05-27T10:22:21.279Z,42.80
2018-05-27T10:24:47.515Z,42.77
2018-05-27T10:27:13.633Z,42.76
2018-05-27T10:29:39.732Z,42.73
2018-05-27T10:32:05.836Z,42.72
2018-05-27T10:34:32.313Z,42.70
2018-05-27T10:36:58.749Z,42.68
2018-05-27T10:39:25.326Z,42.67
2018-05-27T10:41:51.438Z,42.67
2018-05-27T10:44:17.773Z,42.68
2018-05-27T10:46:43.900Z,42.68
2018-05-27T10:49:10.040Z,42.67
2018-05-27T10:51:36.140Z,42.66
2018-05-27T10:54:02.449Z,42.65
2018-05-27T10:56:28.554Z,42.64
2018-05-27T10:58:54.653Z,42.64
2018-05-27T11:01:20.784Z,42.63
2018-05-27T11:03:46.888Z,42.63
2018-05-27T11:06:13.415Z,42.62
2018-05-27T11:08:39.753Z,42.61
2018-05-27T11:11:05.844Z,42.62
2018-05-27T11:13:32.030Z,42.60
2018-05-27T11:15:58.400Z,42.60
2018-05-27T11:18:24.729Z,42.60
2018-05-27T11:20:51.202Z,42.60
2018-05-27T11:23:17.308Z,42.58
2018-05-27T11:25:43.417Z,42.58
2018-05-27T11:28:09.586Z,42.57
2018-05-27T11:30:35.697Z,42.57
2018-05-27T11:33:01.804Z,42.56
2018-05-27T11:35:27.926Z,42.54
2018-05-27T11:37:54.557Z,42.54
2018-05-27T11:40:20.653Z,42.53
2018-05-27T11:42:46.746Z,42.52
2018-05-27T11:45:12.864Z,42.52
2018-05-27T11:47:38.979Z,42.51
2018-05-27T11:50:05.145Z,42.52
2018-05-27T11:52:31.261Z,42.51
2018-05-27T11:54:57.638Z,42.49
2018-05-27T11:57:23.909Z,42.48
2018-05-27T11:59:50.379Z,42.48
2018-05-27T12:02:16.494Z,42.46
2018-05-27T12:04:42.585Z,42.45
2018-05-27T12:07:08.755Z,42.46
2018-05-27T12:09:35.014Z,42.43
2018-05-27T12:12:01.068Z,42.41
2018-05-27T12:14:27.237Z,42.40
2018-05-27T12:16:53.588Z,42.38
2018-05-27T12:19:19.952Z,42.36
2018-05-27T12:21:46.354Z,42.33
2018-05-27T12:24:12.518Z,42.29
2018-05-27T12:26:38.913Z,42.28
2018-05-27T12:29:05.051Z,42.26
2018-05-27T12:31:31.574Z,42.24
2018-05-27T12:33:57.664Z,42.22
2018-05-27T12:36:23.745Z,42.20
2018-05-27T12:38:49.893Z,42.19
2018-05-27T12:41:16.016Z,42.18
2018-05-27T12:43:42.414Z,42.17
2018-05-27T12:46:08.501Z,42.14
2018-05-27T12:48:34.637Z,42.14
2018-05-27T12:51:00.794Z,42.14
2018-05-27T12:53:26.907Z,42.12
2018-05-27T12:55:53.009Z,42.11
2018-05-27T12:58:19.166Z,42.10
2018-05-27T13:00:45.270Z,42.08
2018-05-27T13:03:11.398Z,42.06
2018-05-27T13:05:37.844Z,42.05
2018-05-27T13:08:03.956Z,42.04
2018-05-27T13:10:30.054Z,42.01
2018-05-27T13:12:56.192Z,41.99
2018-05-27T13:15:22.655Z,41.98
2018-05-27T13:17:48.758Z,41.97
2018-05-27T13:20:14.862Z,41.96
2018-05-27T13:22:41.030Z,41.96
2018-05-27T13:25:07.464Z,41.96
2018-05-27T13:27:33.559Z,41.94
2018-05-27T13:29:59.714Z,41.95
2018-05-27T13:32:25.845Z,41.95
2018-05-27T13:34:51.940Z,41.92
2018-05-27T13:37:18.087Z,41.92
2018-05-27T13:39:44.226Z,41.90
2018-05-27T13:42:10.585Z,41.89
2018-05-27T13:44:36.714Z,41.86
2018-05-27T13:47:02.842Z,41.84
2018-05-27T13:49:28.941Z,41.82
2018-05-27T13:51:55.670Z,41.81
2018-05-27T13:54:21.778Z,41.80
2018-05-27T13:56:47.881Z,41.78
2018-05-27T13:59:14.062Z,41.74
2018-05-27T14:01:40.173Z,41.69
2018-05-27T14:04:06.632Z,41.57
2018-05-27T14:06:32.729Z,41.49
2018-05-27T14:08:59.162Z,41.50
2018-05-27T14:11:25.320Z,41.54
2018-05-27T14:13:51.457Z,41.55
2018-05-27T14:16:17.901Z,41.53
2018-05-27T14:18:44.020Z,41.45
2018-05-27T14:21:10.126Z,41.34
2018-05-27T14:23:36.347Z,41.26
2018-05-27T14:26:02.760Z,41.13
2018-05-27T14:28:28.907Z,41.01
2018-05-27T14:30:55.093Z,40.80
2018-05-27T14:33:21.316Z,40.51
2018-05-27T14:35:47.414Z,39.91
2018-05-27T14:38:13.515Z,37.56
2018-05-27T14:40:39.681Z,34.71
2018-05-27T14:43:05.789Z,32.98
2018-05-27T14:45:31.876Z,32.03
2018-05-27T14:47:58.257Z,31.44
2018-05-27T14:50:24.630Z,31.05
2018-05-27T14:52:50.743Z,30.89
2018-05-27T14:55:16.869Z,30.70
2018-05-27T14:57:43.135Z,30.53
2018-05-27T15:00:09.243Z,30.42
2018-05-27T15:02:35.350Z,30.60
2018-05-27T15:05:01.543Z,32.04
2018-05-27T15:07:27.636Z,33.77
2018-05-27T15:09:53.745Z,35.24
2018-05-27T15:12:19.867Z,36.61
2018-05-27T15:14:45.992Z,37.55
2018-05-27T15:17:12.833Z,38.40
2018-05-27T15:19:38.943Z,39.07
2018-05-27T15:22:05.045Z,39.47
2018-05-27T15:24:31.193Z,39.79
2018-05-27T15:26:57.421Z,40.00
2018-05-27T15:29:23.534Z,40.18
2018-05-27T15:31:49.788Z,40.29
2018-05-27T15:34:15.889Z,40.40
2018-05-27T15:36:42.002Z,40.43
2018-05-27T15:39:08.137Z,40.56
2018-05-27T15:41:34.498Z,40.61
2018-05-27T15:44:00.705Z,40.60
2018-05-27T15:46:26.817Z,40.74
2018-05-27T15:48:52.954Z,40.79
2018-05-27T15:51:19.055Z,40.82
2018-05-27T15:53:45.175Z,40.60
2018-05-27T15:56:11.420Z,40.46
2018-05-27T15:58:37.781Z,40.44
2018-05-27T16:01:04.221Z,40.46
2018-05-27T16:03:30.795Z,40.52
2018-05-27T16:05:56.898Z,40.58
2018-05-27T16:08:23.014Z,40.48
2018-05-27T16:10:49.154Z,40.28
2018-05-27T16:13:15.572Z,40.22
2018-05-27T16:15:41.701Z,40.06
2018-05-27T16:18:07.919Z,39.84
2018-05-27T16:20:34.085Z,39.83
2018-05-27T16:23:00.542Z,39.64
2018-05-27T16:25:26.909Z,39.57
2018-05-27T16:27:53.073Z,39.53
2018-05-27T16:30:19.173Z,39.58
2018-05-27T16:32:45.286Z,39.83
2018-05-27T16:35:11.418Z,39.97
2018-05-27T16:37:37.522Z,39.79
2018-05-27T16:40:03.934Z,39.36
2018-05-27T16:42:30.043Z,38.71
2018-05-27T16:44:56.149Z,37.60
2018-05-27T16:47:22.368Z,37.10
2018-05-27T16:49:48.487Z,36.86
2018-05-27T16:52:15.009Z,36.25
2018-05-27T16:54:41.104Z,35.13
2018-05-27T16:57:07.297Z,34.60
2018-05-27T16:59:33.940Z,34.47
2018-05-27T17:02:00.056Z,34.77
2018-05-27T17:04:26.193Z,35.33
2018-05-27T17:06:52.339Z,35.91
2018-05-27T17:09:19.345Z,36.18
2018-05-27T17:11:45.486Z,36.13
2018-05-27T17:14:11.931Z,36.17
2018-05-27T17:16:38.046Z,36.28
2018-05-27T17:19:04.264Z,36.54
2018-05-27T17:21:30.503Z,36.74
2018-05-27T17:23:56.614Z,37.01
2018-05-27T17:26:22.728Z,37.18
2018-05-27T17:28:49.297Z,37.38
2018-05-27T17:31:15.415Z,37.54
2018-05-27T17:33:41.519Z,37.66
2018-05-27T17:36:07.629Z,37.75
2018-05-27T17:38:33.769Z,37.82
2018-05-27T17:41:00.191Z,37.86
2018-05-27T17:43:26.469Z,37.93
2018-05-27T17:45:52.565Z,37.98
2018-05-27T17:48:18.679Z,38.00
2018-05-27T17:50:45.102Z,38.10
2018-05-27T17:53:11.228Z,38.11
2018-05-27T17:55:37.393Z,38.18
2018-05-27T17:58:03.485Z,38.25
2018-05-27T18:00:30.119Z,38.27
2018-05-27T18:02:56.234Z,38.36
2018-05-27T18:05:22.355Z,38.48
2018-05-27T18:07:48.490Z,38.61
2018-05-27T18:10:14.627Z,38.63
2018-05-27T18:12:40.900Z,38.75
2018-05-27T18:15:06.992Z,38.70
2018-05-27T18:17:33.099Z,38.81
2018-05-27T18:19:59.651Z,38.85
2018-05-27T18:22:25.764Z,38.87
2018-05-27T18:24:51.874Z,38.88
2018-05-27T18:27:18.060Z,38.97
2018-05-27T18:29:44.164Z,39.05
2018-05-27T18:32:10.331Z,39.10
2018-05-27T18:34:36.431Z,39.20
2018-05-27T18:37:02.570Z,39.25
2018-05-27T18:39:28.705Z,39.33
2018-05-27T18:41:54.852Z,39.41
2018-05-27T18:44:21.090Z,39.52
2018-05-27T18:46:47.200Z,39.60
2018-05-27T18:49:13.309Z,39.68
2018-05-27T18:51:39.801Z,39.81
2018-05-27T18:54:05.918Z,39.88
2018-05-27T18:56:32.337Z,40.02
2018-05-27T18:58:58.504Z,40.14
2018-05-27T19:01:25.709Z,40.22
2018-05-27T19:03:51.811Z,40.41
2018-05-27T19:06:18.584Z,40.53
2018-05-27T19:08:44.681Z,40.68
2018-05-27T19:11:10.822Z,40.87
2018-05-27T19:13:37.308Z,41.02
2018-05-27T19:16:03.412Z,41.18
2018-05-27T19:18:29.526Z,41.26
2018-05-27T19:20:55.654Z,41.37
2018-05-27T19:23:21.813Z,41.48
2018-05-27T19:25:47.905Z,41.59
2018-05-27T19:28:14.257Z,41.68
2018-05-27T19:30:40.385Z,41.80
2018-05-27T19:33:06.485Z,41.90
2018-05-27T19:35:32.605Z,41.98
2018-05-27T19:37:58.850Z,42.02
2018-05-27T19:40:24.953Z,42.03
2018-05-27T19:42:51.041Z,42.07
2018-05-27T19:45:17.161Z,42.11
2018-05-27T19:47:43.272Z,42.16
2018-05-27T19:50:09.398Z,42.18
2018-05-27T19:52:35.797Z,42.26
2018-05-27T19:55:01.912Z,42.34
2018-05-27T19:57:28.045Z,42.33
2018-05-27T19:59:54.149Z,42.43
2018-05-27T20:02:20.302Z,42.51
2018-05-27T20:04:46.403Z,42.61
2018-05-27T20:07:12.638Z,42.75
2018-05-27T20:09:38.733Z,42.89
2018-05-27T20:12:04.844Z,43.01
2018-05-27T20:14:31.050Z,43.15
2018-05-27T20:16:57.194Z,43.28
2018-05-27T20:19:23.300Z,43.40
2018-05-27T20:21:49.947Z,43.43
2018-05-27T20:24:16.062Z,43.45
2018-05-27T20:26:42.172Z,43.47
2018-05-27T20:29:09.004Z,43.54
2018-05-27T20:31:35.097Z,43.60
2018-05-27T20:34:01.206Z,43.67
2018-05-27T20:36:27.449Z,43.74
2018-05-27T20:38:53.923Z,43.83
2018-05-27T20:41:20.022Z,43.88
2018-05-27T20:43:46.165Z,43.91
2018-05-27T20:46:12.272Z,43.97
2018-05-27T20:48:38.421Z,44.03
2018-05-27T20:51:04.582Z,44.08
2018-05-27T20:53:30.697Z,44.16
2018-05-27T20:55:57.110Z,44.30
2018-05-27T20:58:23.285Z,44.35
2018-05-27T21:00:49.416Z,44.44
2018-05-27T21:03:15.664Z,44.50
2018-05-27T21:05:41.761Z,44.58
2018-05-27T21:08:08.141Z,44.64
2018-05-27T21:10:34.784Z,44.68
2018-05-27T21:13:00.921Z,44.76
2018-05-27T21:15:27.006Z,44.80
2018-05-27T21:17:53.157Z,44.89
2018-05-27T21:20:19.489Z,44.94
2018-05-27T21:22:45.613Z,44.92
2018-05-27T21:25:12.191Z,44.91
2018-05-27T21:27:38.334Z,44.90
2018-05-27T21:30:04.417Z,44.89
2018-05-27T21:32:30.562Z,44.93
2018-05-27T21:34:57.022Z,44.94
2018-05-27T21:37:23.393Z,44.96
2018-05-27T21:39:49.722Z,44.98
2018-05-27T21:42:15.858Z,45.04
2018-05-27T21:44:41.999Z,45.09
2018-05-27T21:47:08.155Z,45.13
2018-05-27T21:49:34.258Z,45.18
2018-05-27T21:52:00.358Z,45.24
2018-05-27T21:54:26.492Z,45.24
2018-05-27T21:56:52.624Z,45.28
2018-05-27T21:59:18.753Z,45.30
2018-05-27T22:01:45.165Z,45.33
2018-05-27T22:04:11.739Z,45.37
2018-05-27T22:06:37.839Z,45.45
2018-05-27T22:09:04.949Z,45.48
2018-05-27T22:11:31.088Z,45.52
2018-05-27T22:13:57.245Z,45.50
2018-05-27T22:16:23.351Z,45.43
2018-05-27T22:18:49.477Z,45.47
2018-05-27T22:21:15.632Z,45.54
2018-05-27T22:23:41.716Z,45.61
2018-05-27T22:26:07.812Z,45.60
2018-05-27T22:28:33.949Z,45.67
2018-05-27T22:31:00.046Z,45.67
2018-05-27T22:33:26.587Z,45.70
2018-05-27T22:35:52.700Z,45.74
2018-05-27T22:38:18.814Z,45.77
2018-05-27T22:40:44.942Z,45.76
2018-05-27T22:43:11.041Z,45.76
2018-05-27T22:45:37.174Z,45.75
2018-05-27T22:48:03.268Z,45.76
2018-05-27T22:50:29.392Z,45.80
2018-05-27T22:52:55.489Z,45.80
2018-05-27T22:55:21.613Z,45.80
2018-05-27T22:57:47.740Z,45.83
2018-05-27T23:00:13.979Z,45.85
2018-05-27T23:02:40.352Z,45.85
2018-05-27T23:05:06.786Z,45.84
2018-05-27T23:07:32.943Z,45.85
2018-05-27T23:09:59.209Z,45.87
2018-05-27T23:12:25.318Z,45.88
2018-05-27T23:14:51.429Z,45.88
2018-05-27T23:17:17.931Z,45.92
2018-05-27T23:19:44.028Z,45.98
2018-05-27T23:22:10.122Z,46.04
2018-05-27T23:24:36.254Z,46.07
2018-05-27T23:27:02.399Z,46.07
2018-05-27T23:29:28.648Z,46.07
2018-05-27T23:31:54.746Z,46.08
2018-05-27T23:34:20.853Z,46.06
2018-05-27T23:36:46.981Z,46.08
2018-05-27T23:39:13.134Z,46.10
2018-05-27T23:41:39.234Z,46.11
2018-05-27T23:44:05.337Z,46.15
2018-05-27T23:46:31.464Z,46.12
2018-05-27T23:48:57.598Z,46.12
2018-05-27T23:51:23.999Z,46.14
2018-05-27T23:53:50.103Z,46.12
2018-05-27T23:56:16.350Z,46.13
2018-05-27T23:58:42.463Z,46.13
